createdAt,value
2018-09-27T00:00:53.962Z,16.20
2018-09-27T00:03:22.813Z,16.20
2018-09-27T00:05:51.647Z,16.20
2018-09-27T00:08:21.625Z,16.20
2018-09-27T00:10:50.921Z,16.10
2018-09-27T00:13:20.185Z,16.20
2018-09-27T00:15:49.353Z,16.10
2018-09-27T00:18:18.349Z,16.10
2018-09-27T00:20:47.225Z,16.10
2018-09-27T00:23:16.077Z,16.10
2018-09-27T00:25:44.970Z,16.10
2018-09-27T00:28:13.915Z,16.10
2018-09-27T00:30:42.893Z,16.10
2018-09-27T00:33:12.110Z,16.10
2018-09-27T00:35:42.227Z,16.10
2018-09-27T00:38:11.084Z,16.10
2018-09-27T00:40:40.062Z,16.00
2018-09-27T00:43:09.077Z,16.00
2018-09-27T00:45:42.495Z,16.00
2018-09-27T00:48:12.467Z,15.90
2018-09-27T00:50:41.609Z,15.80
2018-09-27T00:53:10.779Z,15.80
2018-09-27T00:55:40.028Z,15.80
2018-09-27T00:58:09.421Z,15.70
2018-09-27T01:00:38.394Z,15.70
2018-09-27T01:03:08.595Z,15.70
2018-09-27T01:05:38.252Z,15.70
2018-09-27T01:08:07.765Z,15.60
2018-09-27T01:10:36.640Z,15.60
2018-09-27T01:13:05.597Z,15.50
2018-09-27T01:15:34.369Z,15.40
2018-09-27T01:18:03.304Z,15.40
2018-09-27T01:20:32.084Z,15.40
2018-09-27T01:23:00.986Z,15.40
2018-09-27T01:25:29.982Z,15.40
2018-09-27T01:27:58.826Z,15.30
2018-09-27T01:30:27.847Z,15.30
2018-09-27T01:32:56.754Z,15.30
2018-09-27T01:35:25.619Z,15.30
2018-09-27T01:37:54.315Z,15.20
2018-09-27T01:40:23.218Z,15.20
2018-09-27T01:42:52.189Z,15.10
2018-09-27T01:45:21.453Z,15.10
2018-09-27T01:47:50.526Z,15.20
2018-09-27T01:50:19.493Z,15.10
2018-09-27T01:52:48.451Z,15.10
2018-09-27T01:55:17.403Z,15.00
2018-09-27T01:57:46.043Z,15.00
2018-09-27T02:00:14.899Z,14.90
2018-09-27T02:02:43.547Z,14.90
2018-09-27T02:05:12.409Z,14.90
2018-09-27T02:07:41.363Z,14.90
2018-09-27T02:10:10.346Z,14.90
2018-09-27T02:12:39.193Z,14.90
2018-09-27T02:15:08.295Z,14.80
2018-09-27T02:17:37.079Z,14.80
2018-09-27T02:20:06.323Z,14.70
2018-09-27T02:22:35.225Z,14.70
2018-09-27T02:25:04.143Z,14.60
2018-09-27T02:27:32.980Z,14.60
2018-09-27T02:30:02.090Z,14.50
2018-09-27T02:32:30.942Z,14.50
2018-09-27T02:34:59.926Z,14.50
2018-09-27T02:37:28.830Z,14.50
2018-09-27T02:39:57.654Z,14.50
2018-09-27T02:42:26.632Z,14.40
2018-09-27T02:44:55.539Z,14.30
2018-09-27T02:47:24.326Z,14.30
2018-09-27T02:49:53.174Z,14.30
2018-09-27T02:52:22.184Z,14.20
2018-09-27T02:54:51.074Z,14.20
2018-09-27T02:57:19.834Z,14.20
2018-09-27T02:59:48.597Z,14.20
2018-09-27T03:02:17.924Z,14.20
2018-09-27T03:04:46.832Z,14.20
2018-09-27T03:07:15.402Z,14.20
2018-09-27T03:09:44.000Z,14.20
2018-09-27T03:12:12.617Z,14.20
2018-09-27T03:14:41.476Z,14.10
2018-09-27T03:17:10.060Z,14.10
2018-09-27T03:19:39.058Z,14.00
2018-09-27T03:22:07.828Z,14.00
2018-09-27T03:24:36.700Z,14.00
2018-09-27T03:27:05.708Z,14.00
2018-09-27T03:29:34.618Z,13.90
2018-09-27T03:32:03.781Z,13.90
2018-09-27T03:34:33.262Z,13.90
2018-09-27T03:37:02.315Z,13.80
2018-09-27T03:39:31.319Z,13.80
2018-09-27T03:42:00.239Z,13.70
2018-09-27T03:44:29.082Z,13.80
2018-09-27T03:46:58.127Z,13.80
2018-09-27T03:49:27.080Z,13.70
2018-09-27T03:51:55.956Z,13.70
2018-09-27T03:54:24.797Z,13.70
2018-09-27T03:56:53.662Z,13.70
2018-09-27T03:59:22.669Z,13.60
2018-09-27T04:01:51.578Z,13.60
2018-09-27T04:04:20.372Z,13.50
2018-09-27T04:06:49.558Z,13.50
2018-09-27T04:09:18.427Z,13.50
2018-09-27T04:11:47.286Z,13.40
2018-09-27T04:14:16.240Z,13.40
2018-09-27T04:16:44.971Z,13.40
2018-09-27T04:19:14.080Z,13.40
2018-09-27T04:21:43.113Z,13.40
2018-09-27T04:24:12.203Z,13.30
2018-09-27T04:26:40.967Z,13.30
2018-09-27T04:29:09.713Z,13.30
2018-09-27T04:31:38.378Z,13.20
2018-09-27T04:34:07.479Z,13.20
2018-09-27T04:36:36.106Z,13.20
2018-09-27T04:39:07.127Z,13.20
2018-09-27T04:41:39.539Z,13.20
2018-09-27T04:44:08.665Z,13.20
2018-09-27T04:46:37.813Z,13.10
2018-09-27T04:49:06.997Z,13.10
2018-09-27T04:51:35.900Z,13.10
2018-09-27T04:54:04.803Z,13.20
2018-09-27T04:56:33.694Z,13.20
2018-09-27T04:59:02.702Z,13.20
2018-09-27T05:01:31.362Z,13.10
2018-09-27T05:03:59.957Z,13.10
2018-09-27T05:06:28.632Z,13.10
2018-09-27T05:08:57.437Z,13.10
2018-09-27T05:11:26.346Z,13.00
2018-09-27T05:13:55.096Z,13.10
2018-09-27T05:16:28.191Z,13.10
2018-09-27T05:18:57.064Z,13.10
2018-09-27T05:21:25.954Z,13.10
2018-09-27T05:23:54.981Z,13.10
2018-09-27T05:26:23.981Z,13.10
2018-09-27T05:28:52.948Z,13.00
2018-09-27T05:31:21.774Z,13.00
2018-09-27T05:33:50.740Z,13.00
2018-09-27T05:36:19.647Z,13.00
2018-09-27T05:38:48.278Z,13.00
2018-09-27T05:41:17.160Z,12.90
2018-09-27T05:43:46.092Z,12.90
2018-09-27T05:46:15.085Z,12.90
2018-09-27T05:48:44.102Z,12.90
2018-09-27T05:51:13.144Z,12.80
2018-09-27T05:53:41.717Z,12.80
2018-09-27T05:56:10.318Z,12.80
2018-09-27T05:58:38.910Z,12.80
2018-09-27T06:01:07.574Z,12.80
2018-09-27T06:03:36.221Z,12.80
2018-09-27T06:06:05.092Z,12.80
2018-09-27T06:08:33.924Z,12.80
2018-09-27T06:11:03.090Z,12.90
2018-09-27T06:13:31.977Z,12.90
2018-09-27T06:16:00.905Z,12.90
2018-09-27T06:18:29.863Z,13.00
2018-09-27T06:20:59.130Z,13.00
2018-09-27T06:23:28.099Z,13.00
2018-09-27T06:25:57.108Z,13.00
2018-09-27T06:28:26.096Z,13.00
2018-09-27T06:30:55.067Z,13.00
2018-09-27T06:33:24.034Z,13.10
2018-09-27T06:35:52.921Z,13.10
2018-09-27T06:38:22.061Z,13.20
2018-09-27T06:40:51.527Z,13.30
2018-09-27T06:43:20.516Z,13.30
2018-09-27T06:45:49.557Z,13.50
2018-09-27T06:48:18.787Z,13.50
2018-09-27T06:50:47.591Z,13.70
2018-09-27T06:53:16.640Z,13.70
2018-09-27T06:55:45.837Z,13.70
2018-09-27T06:58:14.684Z,13.90
2018-09-27T07:00:43.601Z,14.10
2018-09-27T07:03:12.466Z,14.60
2018-09-27T07:05:41.607Z,14.70
2018-09-27T07:08:10.341Z,14.80
2018-09-27T07:10:39.654Z,14.90
2018-09-27T07:13:14.804Z,15.20
2018-09-27T07:15:44.502Z,15.10
2018-09-27T07:18:13.728Z,15.20
2018-09-27T07:20:42.881Z,15.10
2018-09-27T07:23:12.154Z,15.60
2018-09-27T07:25:41.252Z,15.70
2018-09-27T07:28:10.288Z,15.60
2018-09-27T07:30:39.924Z,16.00
2018-09-27T07:33:09.025Z,15.90
2018-09-27T07:35:37.771Z,16.00
2018-09-27T07:38:06.931Z,16.20
2018-09-27T07:40:36.072Z,16.20
2018-09-27T07:43:04.983Z,16.40
2018-09-27T07:45:34.221Z,16.60
2018-09-27T07:48:02.869Z,16.30
2018-09-27T07:50:32.170Z,16.20
2018-09-27T07:53:01.063Z,16.40
2018-09-27T07:55:29.987Z,16.40
2018-09-27T07:57:58.717Z,16.50
2018-09-27T08:00:27.609Z,17.10
2018-09-27T08:02:56.431Z,17.40
2018-09-27T08:05:25.112Z,17.70
2018-09-27T08:07:54.245Z,17.50
2018-09-27T08:10:23.396Z,17.00
2018-09-27T08:12:52.226Z,17.10
2018-09-27T08:15:21.155Z,17.50
2018-09-27T08:17:50.056Z,18.00
2018-09-27T08:20:19.191Z,18.20
2018-09-27T08:22:48.034Z,18.30
2018-09-27T08:25:17.378Z,18.60
2018-09-27T08:27:46.336Z,18.40
2018-09-27T08:30:15.380Z,18.60
2018-09-27T08:32:44.300Z,18.70
2018-09-27T08:35:13.101Z,19.20
2018-09-27T08:37:42.043Z,19.50
2018-09-27T08:40:11.264Z,19.20
2018-09-27T08:42:40.112Z,19.20
2018-09-27T08:45:09.343Z,19.50
2018-09-27T08:47:37.830Z,19.70
2018-09-27T08:50:06.822Z,19.90
2018-09-27T08:52:36.005Z,20.20
2018-09-27T08:55:05.053Z,20.00
2018-09-27T08:57:33.842Z,19.40
2018-09-27T09:00:03.318Z,19.30
2018-09-27T09:02:32.610Z,20.10
2018-09-27T09:05:01.476Z,20.30
2018-09-27T09:07:30.334Z,20.20
2018-09-27T09:09:58.928Z,20.40
2018-09-27T09:12:27.475Z,20.70
2018-09-27T09:14:56.650Z,20.30
2018-09-27T09:17:25.700Z,20.40
2018-09-27T09:19:58.092Z,20.40
2018-09-27T09:22:27.062Z,20.70
2018-09-27T09:24:56.070Z,20.70
2018-09-27T09:27:25.132Z,20.40
2018-09-27T09:29:53.902Z,20.60
2018-09-27T09:32:23.088Z,21.00
2018-09-27T09:34:51.942Z,20.90
2018-09-27T09:37:20.743Z,21.30
2018-09-27T09:39:49.551Z,21.50
2018-09-27T09:42:18.625Z,22.30
2018-09-27T09:44:47.738Z,22.00
2018-09-27T09:47:16.557Z,22.20
2018-09-27T09:49:45.599Z,22.10
2018-09-27T09:52:14.396Z,22.50
2018-09-27T09:54:43.115Z,22.70
2018-09-27T09:57:12.428Z,22.80
2018-09-27T09:59:41.390Z,22.70
2018-09-27T10:02:10.338Z,22.80
2018-09-27T10:04:39.104Z,23.10
2018-09-27T10:07:08.043Z,23.00
2018-09-27T10:09:36.818Z,22.90
2018-09-27T10:12:05.722Z,22.80
2018-09-27T10:14:34.650Z,23.00
2018-09-27T10:17:03.625Z,23.20
2018-09-27T10:19:32.593Z,23.10
2018-09-27T10:22:01.615Z,23.20
2018-09-27T10:24:30.381Z,23.20
2018-09-27T10:26:59.163Z,23.60
2018-09-27T10:29:28.100Z,23.80
2018-09-27T10:31:57.097Z,23.90
2018-09-27T10:34:26.274Z,24.20
2018-09-27T10:36:55.574Z,24.40
2018-09-27T10:39:24.531Z,24.40
2018-09-27T10:41:53.465Z,24.40
2018-09-27T10:44:22.640Z,24.10
2018-09-27T10:46:51.593Z,24.40
2018-09-27T10:49:20.506Z,24.60
2018-09-27T10:51:49.299Z,24.70
2018-09-27T10:54:18.118Z,24.60
2018-09-27T10:56:47.135Z,24.70
2018-09-27T10:59:15.976Z,24.90
2018-09-27T11:01:45.018Z,25.10
2018-09-27T11:04:14.061Z,25.30
2018-09-27T11:06:43.104Z,25.40
2018-09-27T11:09:12.090Z,25.60
2018-09-27T11:11:40.814Z,25.70
2018-09-27T11:14:09.802Z,25.80
2018-09-27T11:16:38.739Z,25.80
2018-09-27T11:19:07.892Z,26.10
2018-09-27T11:21:36.820Z,26.30
2018-09-27T11:24:05.817Z,26.40
2018-09-27T11:26:34.695Z,26.60
2018-09-27T11:29:14.701Z,26.70
2018-09-27T11:31:48.685Z,26.90
2018-09-27T11:34:17.572Z,26.80
2018-09-27T11:36:46.556Z,27.00
2018-09-27T11:39:15.435Z,27.00
2018-09-27T11:41:44.488Z,26.90
2018-09-27T11:44:13.648Z,27.30
2018-09-27T11:46:42.451Z,27.40
2018-09-27T11:49:11.254Z,27.60
2018-09-27T11:51:39.991Z,27.60
2018-09-27T11:54:08.800Z,27.60
2018-09-27T11:56:38.041Z,27.80
2018-09-27T11:59:07.354Z,27.80
2018-09-27T12:01:36.189Z,27.80
2018-09-27T12:04:05.001Z,27.90
2018-09-27T12:06:34.027Z,28.20
2018-09-27T12:09:03.306Z,28.00
2018-09-27T12:11:32.161Z,28.10
2018-09-27T12:14:01.040Z,28.20
2018-09-27T12:16:30.066Z,28.40
2018-09-27T12:18:59.133Z,28.40
2018-09-27T12:21:28.032Z,28.00
2018-09-27T12:23:57.010Z,28.10
2018-09-27T12:26:25.823Z,28.20
2018-09-27T12:28:54.696Z,28.70
2018-09-27T12:31:23.629Z,28.60
2018-09-27T12:33:52.639Z,28.70
2018-09-27T12:36:21.718Z,29.00
2018-09-27T12:38:50.872Z,29.20
2018-09-27T12:41:19.805Z,29.70
2018-09-27T12:43:48.658Z,29.50
2018-09-27T12:46:21.416Z,29.50
2018-09-27T12:48:50.351Z,29.70
2018-09-27T12:51:19.510Z,30.00
2018-09-27T12:53:48.368Z,29.10
2018-09-27T12:56:17.309Z,30.00
2018-09-27T12:58:46.568Z,29.90
2018-09-27T13:01:15.714Z,30.10
2018-09-27T13:03:47.976Z,30.20
2018-09-27T13:06:16.909Z,30.40
2018-09-27T13:08:45.718Z,30.20
2018-09-27T13:11:14.597Z,30.00
2018-09-27T13:13:43.647Z,30.10
2018-09-27T13:16:12.761Z,30.40
2018-09-27T13:18:41.833Z,30.60
2018-09-27T13:21:10.885Z,30.80
2018-09-27T13:23:39.739Z,30.50
2018-09-27T13:26:08.914Z,31.20
2018-09-27T13:28:38.383Z,31.10
2018-09-27T13:31:07.390Z,31.00
2018-09-27T13:33:36.219Z,30.90
2018-09-27T13:36:05.026Z,30.90
2018-09-27T13:38:33.783Z,31.10
2018-09-27T13:41:02.731Z,30.90
2018-09-27T13:43:31.716Z,31.30
2018-09-27T13:46:10.406Z,31.60
2018-09-27T13:48:39.304Z,31.00
2018-09-27T13:51:08.375Z,31.40
2018-09-27T13:53:37.529Z,31.40
2018-09-27T13:56:06.570Z,31.50
2018-09-27T13:58:35.683Z,31.60
2018-09-27T14:01:08.553Z,31.90
2018-09-27T14:03:37.695Z,32.20
2018-09-27T14:06:06.561Z,32.20
2018-09-27T14:08:35.278Z,32.00
2018-09-27T14:11:04.069Z,32.40
2018-09-27T14:13:33.391Z,32.40
2018-09-27T14:16:02.619Z,32.50
2018-09-27T14:18:31.522Z,32.60
2018-09-27T14:21:04.407Z,32.40
2018-09-27T14:23:33.517Z,32.20
2018-09-27T14:26:02.486Z,32.00
2018-09-27T14:28:31.476Z,32.10
2018-09-27T14:31:00.316Z,31.60
2018-09-27T14:33:29.174Z,31.40
2018-09-27T14:35:57.764Z,31.10
2018-09-27T14:38:26.830Z,30.70
2018-09-27T14:40:55.784Z,30.80
2018-09-27T14:43:24.776Z,30.60
2018-09-27T14:45:54.062Z,30.40
2018-09-27T14:48:22.921Z,30.50
2018-09-27T14:50:51.521Z,30.40
2018-09-27T14:53:20.427Z,30.20
2018-09-27T14:55:49.328Z,29.90
2018-09-27T14:58:17.898Z,29.90
2018-09-27T15:00:46.945Z,29.30
2018-09-27T15:03:15.787Z,29.40
2018-09-27T15:05:44.423Z,29.50
2018-09-27T15:08:13.365Z,29.40
2018-09-27T15:10:42.015Z,29.30
2018-09-27T15:13:10.818Z,29.10
2018-09-27T15:15:39.634Z,29.00
2018-09-27T15:18:08.494Z,29.00
2018-09-27T15:20:37.522Z,29.10
2018-09-27T15:23:06.381Z,28.90
2018-09-27T15:25:35.463Z,28.90
2018-09-27T15:28:04.430Z,28.90
2018-09-27T15:30:34.492Z,28.90
2018-09-27T15:33:03.368Z,29.20
2018-09-27T15:35:32.518Z,29.30
2018-09-27T15:38:01.711Z,29.40
2018-09-27T15:40:30.786Z,29.30
2018-09-27T15:42:59.718Z,29.10
2018-09-27T15:45:28.818Z,29.00
2018-09-27T15:47:57.400Z,28.90
2018-09-27T15:50:26.532Z,28.80
2018-09-27T15:52:55.629Z,28.80
2018-09-27T15:55:24.963Z,28.90
2018-09-27T15:57:53.955Z,28.80
2018-09-27T16:00:22.763Z,28.80
2018-09-27T16:02:52.706Z,28.90
2018-09-27T16:05:21.871Z,29.00
2018-09-27T16:07:51.143Z,29.10
2018-09-27T16:10:20.173Z,29.10
2018-09-27T16:12:49.010Z,28.90
2018-09-27T16:15:17.846Z,29.00
2018-09-27T16:17:46.870Z,29.00
2018-09-27T16:20:15.591Z,28.80
2018-09-27T16:22:44.485Z,28.70
2018-09-27T16:25:13.276Z,28.60
2018-09-27T16:27:42.061Z,28.60
2018-09-27T16:30:10.687Z,28.60
2018-09-27T16:32:39.541Z,28.40
2018-09-27T16:35:08.559Z,28.30
2018-09-27T16:37:37.375Z,28.20
2018-09-27T16:40:06.846Z,28.00
2018-09-27T16:42:35.749Z,27.90
2018-09-27T16:45:04.794Z,27.70
2018-09-27T16:47:33.789Z,27.50
2018-09-27T16:50:02.696Z,27.30
2018-09-27T16:52:31.620Z,27.10
2018-09-27T16:55:00.517Z,26.90
2018-09-27T16:57:29.290Z,26.70
2018-09-27T16:59:58.294Z,26.40
2018-09-27T17:02:27.277Z,26.30
2018-09-27T17:05:00.034Z,26.10
2018-09-27T17:07:29.686Z,25.90
2018-09-27T17:09:58.615Z,25.80
2018-09-27T17:12:27.671Z,25.60
2018-09-27T17:14:56.666Z,25.40
2018-09-27T17:17:25.452Z,25.30
2018-09-27T17:19:54.303Z,25.10
2018-09-27T17:22:23.305Z,24.90
2018-09-27T17:24:52.281Z,24.80
2018-09-27T17:27:21.124Z,24.60
2018-09-27T17:29:50.305Z,24.50
2018-09-27T17:32:19.516Z,24.30
2018-09-27T17:34:48.357Z,24.20
2018-09-27T17:37:17.168Z,24.10
2018-09-27T17:39:46.196Z,23.90
2018-09-27T17:42:15.259Z,23.80
2018-09-27T17:44:44.147Z,23.60
2018-09-27T17:47:12.861Z,23.50
2018-09-27T17:49:46.075Z,23.40
2018-09-27T17:52:14.893Z,23.30
2018-09-27T17:54:43.698Z,23.10
2018-09-27T17:57:12.848Z,23.00
2018-09-27T17:59:41.782Z,22.90
2018-09-27T18:02:10.918Z,22.80
2018-09-27T18:04:39.728Z,22.70
2018-09-27T18:07:08.652Z,22.60
2018-09-27T18:09:37.695Z,22.50
2018-09-27T18:12:06.433Z,22.40
2018-09-27T18:14:35.482Z,22.40
2018-09-27T18:17:05.455Z,22.30
2018-09-27T18:19:34.799Z,22.20
2018-09-27T18:22:03.691Z,22.10
2018-09-27T18:24:32.833Z,22.10
2018-09-27T18:27:05.633Z,22.00
2018-09-27T18:29:34.726Z,21.90
2018-09-27T18:32:03.543Z,21.80
2018-09-27T18:34:32.584Z,21.70
2018-09-27T18:37:01.641Z,21.60
2018-09-27T18:39:30.529Z,21.50
2018-09-27T18:41:59.375Z,21.50
2018-09-27T18:44:28.328Z,21.40
2018-09-27T18:46:57.261Z,21.30
2018-09-27T18:49:26.262Z,21.20
2018-09-27T18:51:59.159Z,21.10
2018-09-27T18:54:28.591Z,21.00
2018-09-27T18:56:57.580Z,20.90
2018-09-27T18:59:26.381Z,20.80
2018-09-27T19:02:04.667Z,20.80
2018-09-27T19:04:37.800Z,20.70
2018-09-27T19:07:12.451Z,20.60
2018-09-27T19:09:41.427Z,20.40
2018-09-27T19:12:10.258Z,20.40
2018-09-27T19:14:39.137Z,20.30
2018-09-27T19:17:08.168Z,20.20
2018-09-27T19:19:36.936Z,20.10
2018-09-27T19:22:06.013Z,20.00
2018-09-27T19:24:34.908Z,19.90
2018-09-27T19:27:05.937Z,19.80
2018-09-27T19:29:34.848Z,19.70
2018-09-27T19:32:04.062Z,19.60
2018-09-27T19:34:35.110Z,19.60
2018-09-27T19:37:03.966Z,19.50
2018-09-27T19:39:32.894Z,19.50
2018-09-27T19:42:01.987Z,19.30
2018-09-27T19:44:30.840Z,19.30
2018-09-27T19:46:59.650Z,19.20
2018-09-27T19:49:45.865Z,19.20
2018-09-27T19:52:22.599Z,19.10
2018-09-27T19:55:09.658Z,19.00
2018-09-27T19:57:42.030Z,18.90
2018-09-27T20:00:11.143Z,18.90
2018-09-27T20:02:45.139Z,18.80
2018-09-27T20:05:13.990Z,18.70
2018-09-27T20:07:46.181Z,18.60
2018-09-27T20:10:15.111Z,18.60
2018-09-27T20:12:44.190Z,18.50
2018-09-27T20:15:12.972Z,18.40
2018-09-27T20:17:41.884Z,18.40
2018-09-27T20:20:15.789Z,18.30
2018-09-27T20:22:44.637Z,18.20
2018-09-27T20:25:13.634Z,18.10
2018-09-27T20:27:42.524Z,18.00
2018-09-27T20:30:11.849Z,18.00
2018-09-27T20:32:43.050Z,17.90
2018-09-27T20:35:12.056Z,17.80
2018-09-27T20:37:40.980Z,17.70
2018-09-27T20:40:09.970Z,17.60
2018-09-27T20:42:44.621Z,17.50
2018-09-27T20:45:13.469Z,17.40
2018-09-27T20:47:42.535Z,17.40
2018-09-27T20:50:11.488Z,17.40
2018-09-27T20:52:40.484Z,17.40
2018-09-27T20:55:13.744Z,17.40
2018-09-27T20:57:42.616Z,17.30
2018-09-27T21:00:11.654Z,17.30
2018-09-27T21:02:41.805Z,17.30
2018-09-27T21:05:10.781Z,17.30
2018-09-27T21:07:39.920Z,17.20
2018-09-27T21:10:08.723Z,17.10
2018-09-27T21:12:37.656Z,17.00
2018-09-27T21:15:07.161Z,17.00
2018-09-27T21:17:36.367Z,16.90
2018-09-27T21:20:05.463Z,16.90
2018-09-27T21:22:34.402Z,16.70
2018-09-27T21:25:03.433Z,16.70
2018-09-27T21:27:32.432Z,16.60
2018-09-27T21:30:02.549Z,16.60
2018-09-27T21:32:31.497Z,16.60
2018-09-27T21:35:00.497Z,16.50
2018-09-27T21:37:29.499Z,16.30
2018-09-27T21:39:58.524Z,16.20
2018-09-27T21:42:27.321Z,16.10
2018-09-27T21:44:56.250Z,16.10
2018-09-27T21:47:25.281Z,16.00
2018-09-27T21:49:54.173Z,15.90
2018-09-27T21:52:26.773Z,15.90
2018-09-27T21:54:55.771Z,15.80
2018-09-27T21:57:24.827Z,15.80
2018-09-27T21:59:53.860Z,15.80
2018-09-27T22:02:22.960Z,15.90
2018-09-27T22:04:51.901Z,15.80
2018-09-27T22:07:20.898Z,15.70
2018-09-27T22:09:49.796Z,15.60
2018-09-27T22:12:18.720Z,15.60
2018-09-27T22:14:47.726Z,15.60
2018-09-27T22:17:16.658Z,15.60
2018-09-27T22:19:45.663Z,15.60
2018-09-27T22:22:14.568Z,15.60
2018-09-27T22:24:43.340Z,15.50
2018-09-27T22:27:12.242Z,15.50
2018-09-27T22:29:41.119Z,15.50
2018-09-27T22:32:10.157Z,15.60
2018-09-27T22:34:39.065Z,15.50
2018-09-27T22:37:08.360Z,15.40
2018-09-27T22:39:37.195Z,15.40
2018-09-27T22:42:06.189Z,15.40
2018-09-27T22:44:34.996Z,15.50
2018-09-27T22:47:04.129Z,15.40
2018-09-27T22:49:33.220Z,15.40
2018-09-27T22:52:02.418Z,15.40
2018-09-27T22:54:31.279Z,15.30
2018-09-27T22:57:00.147Z,15.30
2018-09-27T22:59:28.988Z,15.40
2018-09-27T23:01:57.829Z,15.40
2018-09-27T23:04:26.738Z,15.40
2018-09-27T23:06:55.627Z,15.50
2018-09-27T23:09:24.553Z,15.40
2018-09-27T23:11:53.658Z,15.40
2018-09-27T23:14:22.583Z,15.40
2018-09-27T23:16:51.602Z,15.30
2018-09-27T23:19:20.479Z,15.20
2018-09-27T23:21:49.293Z,15.20
2018-09-27T23:24:18.059Z,15.20
2018-09-27T23:26:47.414Z,15.30
2018-09-27T23:29:16.611Z,15.20
2018-09-27T23:31:45.698Z,15.20
2018-09-27T23:34:26.265Z,15.20
2018-09-27T23:36:55.112Z,15.20
2018-09-27T23:39:23.918Z,15.20
2018-09-27T23:41:52.829Z,15.10
2018-09-27T23:44:21.735Z,15.10
2018-09-27T23:46:50.720Z,15.10
2018-09-27T23:49:19.718Z,15.10
2018-09-27T23:51:48.734Z,15.10
2018-09-27T23:54:17.906Z,15.00
2018-09-27T23:56:46.901Z,15.00
2018-09-27T23:59:15.898Z,14.90
